Time;durP1;ratioP1;P1;durP2;ratioP2;P2;SDS_P1;SDS_P2;PMS_P1;PMS_P2;Temp;Humidity;BMP_temperature;BMP_pressure;BME280_temperature;BME280_humidity;BME280_pressure;Samples;Min_cycle;Max_cycle;Signal;HPM_P1;HPM_P2
2023/07/17 00:02:50;;;;;;;5.37;1.90;;;;;;;19.02;69.11;100831.28;6052950;28;20036;-67
2023/07/17 00:05:46;;;;;;;4.95;2.10;;;;;;;18.59;67.87;100829.75;6048738;28;20261;-67
2023/07/17 00:08:41;;;;;;;4.03;1.93;;;;;;;18.51;67.12;100843.31;6069561;28;20603;-67
2023/07/17 00:11:36;;;;;;;5.00;2.50;;;;;;;18.53;67.41;100827.88;6054467;28;20024;-67
2023/07/17 00:14:32;;;;;;;5.63;2.10;;;;;;;18.73;69.19;100838.75;6048795;28;20034;-67
2023/07/17 00:17:28;;;;;;;5.80;2.20;;;;;;;18.86;68.29;100845.03;6049110;28;20022;-67
2023/07/17 00:20:23;;;;;;;5.50;2.50;;;;;;;18.64;67.46;100829.19;6053391;28;20113;-67
2023/07/17 00:23:18;;;;;;;8.03;2.20;;;;;;;18.03;69.22;100833.34;6047568;28;20038;-68
2023/07/17 00:26:13;;;;;;;6.47;2.23;;;;;;;17.63;70.81;100840.16;6053500;28;20037;-68
2023/07/17 00:29:23;;;;;;;8.33;2.43;;;;;;;17.90;71.60;100834.06;6049171;28;20033;-67
2023/07/17 00:32:18;;;;;;;4.78;1.95;;;;;;;18.26;70.41;100850.13;6048888;28;20126;-68
2023/07/17 00:35:14;;;;;;;4.93;2.13;;;;;;;17.92;68.99;100839.22;6048506;28;20406;-68
2023/07/17 00:38:09;;;;;;;4.93;1.90;;;;;;;17.63;70.36;100846.34;6058411;28;20281;-67
2023/07/17 00:41:04;;;;;;;8.13;2.63;;;;;;;17.45;70.02;100839.72;6053118;28;20101;-67
2023/07/17 00:44:00;;;;;;;6.60;2.17;;;;;;;17.37;70.68;100848.66;6052924;28;20026;-67
2023/07/17 00:46:56;;;;;;;4.90;2.13;;;;;;;17.58;70.62;100843.38;6066280;28;20060;-67
2023/07/17 00:49:52;;;;;;;6.07;2.25;;;;;;;17.42;69.81;100843.56;6053569;28;20480;-68
2023/07/17 00:52:47;;;;;;;6.05;2.15;;;;;;;17.56;68.73;100839.22;6053205;28;20057;-67
2023/07/17 00:55:43;;;;;;;5.57;2.05;;;;;;;17.96;68.18;100856.63;6052320;28;20408;-67
2023/07/17 00:58:38;;;;;;;4.85;2.42;;;;;;;17.97;67.37;100847.53;6053404;28;20105;-67
2023/07/17 01:01:34;;;;;;;5.13;2.00;;;;;;;17.87;67.45;100838.97;6052875;28;20029;-67
2023/07/17 01:04:29;;;;;;;8.53;2.70;;;;;;;17.94;70.22;100831.84;6052479;28;20041;-68
2023/07/17 01:07:24;;;;;;;7.50;2.57;;;;;;;17.85;67.79;100834.63;6052811;28;20303;-67
2023/07/17 01:10:20;;;;;;;5.57;2.25;;;;;;;17.80;67.53;100847.78;6066030;28;20041;-67
2023/07/17 01:13:19;;;;;;;6.80;2.37;;;;;;;17.34;68.88;100819.53;6052639;28;20069;-67
2023/07/17 01:16:14;;;;;;;5.85;2.53;;;;;;;17.27;70.69;100857.00;6055749;28;20779;-68
2023/07/17 01:19:09;;;;;;;5.18;2.10;;;;;;;17.17;71.88;100866.34;6056321;28;20042;-68
2023/07/17 01:22:11;;;;;;;4.83;1.90;;;;;;;17.07;72.22;100855.88;6052204;28;20638;-68
2023/07/17 01:25:06;;;;;;;8.18;2.70;;;;;;;17.48;71.10;100856.22;6050769;28;20264;-68
2023/07/17 01:28:02;;;;;;;4.93;2.47;;;;;;;17.61;70.56;100853.75;6052255;28;20465;-68
2023/07/17 01:30:57;;;;;;;4.82;2.20;;;;;;;17.35;70.70;100841.81;6060575;28;20021;-67
2023/07/17 01:33:52;;;;;;;7.40;2.40;;;;;;;17.44;70.32;100836.19;6051700;28;20037;-68
2023/07/17 01:36:48;;;;;;;6.60;2.90;;;;;;;17.39;70.50;100856.53;6052290;28;20030;-67
2023/07/17 01:39:43;;;;;;;4.73;2.33;;;;;;;17.29;70.92;100848.75;6052272;28;20030;-67
2023/07/17 01:42:38;;;;;;;4.70;2.17;;;;;;;16.90;72.75;100867.81;6052077;28;20535;-68
2023/07/17 01:45:34;;;;;;;5.93;2.60;;;;;;;16.46;75.84;100870.38;6051148;28;20033;-67
2023/07/17 01:48:29;;;;;;;5.37;2.30;;;;;;;16.11;78.40;100857.59;6051954;28;20273;-67
2023/07/17 01:51:24;;;;;;;8.17;2.80;;;;;;;16.21;79.97;100879.59;6051701;28;20744;-68
2023/07/17 01:54:20;;;;;;;5.37;2.50;;;;;;;15.99;80.68;100875.88;6051034;28;20265;-68
2023/07/17 01:57:15;;;;;;;10.53;2.80;;;;;;;15.90;81.05;100870.75;6051972;28;20470;-67
2023/07/17 02:00:12;;;;;;;8.43;2.80;;;;;;;16.67;81.56;100875.91;6051501;28;20029;-67
2023/07/17 02:03:07;;;;;;;7.88;2.83;;;;;;;16.94;81.50;100860.22;6051630;28;20100;-67
2023/07/17 02:06:04;;;;;;;5.13;2.27;;;;;;;16.21;79.96;100857.34;6050974;28;20483;-67
2023/07/17 02:08:59;;;;;;;9.35;3.22;;;;;;;16.33;81.88;100878.16;6061780;28;20691;-67
2023/07/17 02:11:54;;;;;;;6.03;2.43;;;;;;;16.19;79.76;100862.03;6075195;28;20036;-67
2023/07/17 02:14:50;;;;;;;10.17;2.60;;;;;;;16.11;79.31;100854.09;6064754;28;20033;-66
2023/07/17 02:17:45;;;;;;;8.57;3.00;;;;;;;16.19;79.16;100865.56;6051275;28;20033;-67
2023/07/17 02:20:40;;;;;;;7.47;2.50;;;;;;;16.64;78.11;100870.91;6051244;28;20814;-67
2023/07/17 02:23:36;;;;;;;6.27;2.83;;;;;;;16.84;76.78;100863.19;6050545;28;20072;-67
2023/07/17 02:26:31;;;;;;;9.13;2.87;;;;;;;17.39;77.79;100872.63;6051338;28;20101;-67
2023/07/17 02:29:26;;;;;;;4.97;2.47;;;;;;;17.76;77.12;100865.28;6051453;28;20033;-67
2023/07/17 02:32:21;;;;;;;4.60;2.20;;;;;;;17.52;74.83;100844.13;6051054;28;20457;-67
2023/07/17 02:35:17;;;;;;;4.70;2.00;;;;;;;17.47;72.67;100851.91;6050181;28;20645;-67
2023/07/17 02:38:12;;;;;;;5.70;2.50;;;;;;;17.50;72.44;100866.78;6053907;28;20057;-67
2023/07/17 02:41:09;;;;;;;5.83;2.53;;;;;;;17.89;74.92;100869.97;6052333;28;20068;-67
2023/07/17 02:44:05;;;;;;;8.98;2.30;;;;;;;17.69;71.40;100867.03;6049917;28;20049;-67
2023/07/17 02:47:00;;;;;;;7.67;2.43;;;;;;;17.35;72.69;100866.78;6050751;28;20022;-67
2023/07/17 02:49:55;;;;;;;6.40;2.13;;;;;;;17.01;73.53;100850.44;6050604;28;20061;-67
2023/07/17 02:52:51;;;;;;;6.47;2.80;;;;;;;16.82;75.19;100861.69;6050539;28;20028;-66
2023/07/17 02:55:46;;;;;;;6.43;3.13;;;;;;;16.91;75.36;100844.50;6049792;28;20026;-67
2023/07/17 02:58:42;;;;;;;6.68;2.72;;;;;;;16.95;75.10;100864.56;6050067;28;20547;-67
2023/07/17 03:01:37;;;;;;;7.22;2.50;;;;;;;16.80;74.83;100861.03;6049910;28;20034;-67
2023/07/17 03:04:33;;;;;;;5.18;2.38;;;;;;;16.61;75.57;100851.69;6049496;28;20032;-67
2023/07/17 03:07:28;;;;;;;6.70;2.80;;;;;;;16.63;75.53;100847.00;6055860;28;20495;-66
2023/07/17 03:10:23;;;;;;;6.20;2.63;;;;;;;16.65;74.74;100867.22;6060511;28;20029;-67
2023/07/17 03:13:20;;;;;;;6.20;2.73;;;;;;;16.63;74.64;100873.78;6072778;28;20034;-66
2023/07/17 03:16:16;;;;;;;6.00;2.88;;;;;;;16.64;73.84;100851.31;6049994;28;20292;-66
2023/07/17 03:19:11;;;;;;;5.75;2.70;;;;;;;16.85;73.45;100869.38;6050191;28;20029;-67
2023/07/17 03:22:07;;;;;;;5.67;2.67;;;;;;;16.50;73.89;100863.63;6050188;28;20029;-67
2023/07/17 03:25:06;;;;;;;5.85;2.70;;;;;;;16.32;74.79;100851.56;6049187;28;20026;-66
2023/07/17 03:28:02;;;;;;;8.93;3.10;;;;;;;16.21;75.13;100852.81;6052752;28;20032;-67
2023/07/17 03:30:57;;;;;;;8.63;2.55;;;;;;;16.47;74.77;100876.56;6059803;28;20021;-66
2023/07/17 03:33:52;;;;;;;6.80;2.67;;;;;;;16.67;76.22;100859.00;6049084;28;20416;-67
2023/07/17 03:36:48;;;;;;;6.60;2.53;;;;;;;16.43;74.15;100883.28;6049804;28;20080;-67
2023/07/17 03:39:43;;;;;;;6.83;2.50;;;;;;;16.29;75.48;100879.53;6049088;28;20037;-68
2023/07/17 03:42:38;;;;;;;7.57;2.43;;;;;;;16.02;76.28;100872.03;6070268;28;20025;-67
2023/07/17 03:45:34;;;;;;;6.45;2.75;;;;;;;15.85;78.20;100886.50;6072886;28;20025;-67
2023/07/17 03:48:29;;;;;;;8.37;2.33;;;;;;;15.62;79.06;100881.13;6073178;28;20143;-68
2023/07/17 03:51:24;;;;;;;5.60;2.60;;;;;;;15.82;79.41;100900.22;6058048;28;20032;-68
2023/07/17 03:54:20;;;;;;;5.53;2.20;;;;;;;15.72;79.03;100899.63;6048435;28;20053;-67
2023/07/17 03:57:15;;;;;;;9.93;3.00;;;;;;;15.65;79.76;100920.03;6049191;28;20046;-67
2023/07/17 04:00:14;;;;;;;7.33;3.13;;;;;;;15.55;80.53;100935.44;6058532;28;20528;-67
2023/07/17 04:03:09;;;;;;;6.32;2.80;;;;;;;15.52;81.16;100935.81;6049250;28;20133;-68
2023/07/17 04:06:04;;;;;;;6.83;2.87;;;;;;;15.66;82.10;100933.22;6051014;28;20071;-68
2023/07/17 04:08:59;;;;;;;7.27;3.37;;;;;;;15.75;81.79;100942.88;6052081;28;20025;-68
2023/07/17 04:11:55;;;;;;;6.07;2.67;;;;;;;15.70;81.36;100947.94;6051834;28;20771;-68
2023/07/17 04:14:50;;;;;;;9.67;3.07;;;;;;;15.83;81.66;100939.34;6053382;28;20458;-68
2023/07/17 04:17:45;;;;;;;6.50;2.43;;;;;;;16.24;80.55;100916.69;6053736;28;20111;-67
2023/07/17 04:20:41;;;;;;;5.70;2.77;;;;;;;16.42;78.56;100919.91;6054337;28;20072;-67
2023/07/17 04:23:37;;;;;;;7.65;2.97;;;;;;;16.75;77.09;100927.72;6053097;28;20030;-68
2023/07/17 04:26:32;;;;;;;10.63;2.67;;;;;;;16.61;76.25;100923.97;6061540;28;20037;-68
2023/07/17 04:29:27;;;;;;;5.53;2.58;;;;;;;16.48;78.57;100916.53;6059219;28;20347;-67
2023/07/17 04:32:23;;;;;;;6.68;2.53;;;;;;;16.48;77.34;100929.91;6064130;28;20148;-68
2023/07/17 04:35:19;;;;;;;5.30;2.33;;;;;;;16.26;78.53;100938.75;6053212;28;20441;-67
2023/07/17 04:38:14;;;;;;;5.27;2.40;;;;;;;16.45;79.08;100932.94;6053239;28;20034;-67
2023/07/17 04:41:09;;;;;;;7.77;2.60;;;;;;;16.43;77.71;100943.00;6053761;28;20028;-67
2023/07/17 04:44:05;;;;;;;5.47;2.55;;;;;;;16.39;79.14;100925.63;6058434;28;20029;-67
2023/07/17 04:47:00;;;;;;;5.25;2.33;;;;;;;16.34;78.17;100946.72;6053179;28;20077;-67
2023/07/17 04:49:56;;;;;;;8.23;3.03;;;;;;;16.38;78.69;100956.09;6049398;28;20066;-67
2023/07/17 04:52:51;;;;;;;10.80;2.60;;;;;;;16.59;79.28;100979.56;6053860;28;20350;-67
2023/07/17 04:55:48;;;;;;;7.25;2.72;;;;;;;16.97;77.55;100962.50;6052119;28;20057;-67
2023/07/17 04:58:43;;;;;;;5.50;2.60;;;;;;;17.43;75.24;100967.75;6057007;28;20063;-67
2023/07/17 05:01:38;;;;;;;6.43;2.50;;;;;;;17.57;73.57;100973.16;6058795;28;20453;-67
2023/07/17 05:04:34;;;;;;;7.20;2.70;;;;;;;17.98;72.47;100956.56;6052299;28;20065;-66
2023/07/17 05:07:29;;;;;;;7.20;2.80;;;;;;;18.20;71.26;100967.16;6056615;28;20048;-66
2023/07/17 05:10:24;;;;;;;6.03;2.90;;;;;;;18.43;70.17;100977.72;6054993;28;20292;-66
2023/07/17 05:13:20;;;;;;;5.70;2.20;;;;;;;18.37;69.60;100967.75;6071009;28;20346;-67
2023/07/17 05:16:15;;;;;;;4.83;2.40;;;;;;;18.14;71.37;100967.91;6055887;28;20121;-67
2023/07/17 05:19:10;;;;;;;5.17;2.40;;;;;;;18.39;69.62;100952.28;6060576;28;20026;-67
2023/07/17 05:22:05;;;;;;;6.97;2.20;;;;;;;18.58;70.08;100969.66;6052162;28;20042;-67
2023/07/17 05:25:03;;;;;;;5.28;2.38;;;;;;;18.35;71.50;100969.78;6052760;28;20128;-67
2023/07/17 05:27:58;;;;;;;6.03;3.00;;;;;;;18.62;70.89;100969.06;6059068;28;20087;-67
2023/07/17 05:30:54;;;;;;;6.63;2.77;;;;;;;18.84;69.66;100951.91;6052662;28;20037;-67
2023/07/17 05:33:50;;;;;;;5.32;2.38;;;;;;;19.46;68.11;100968.13;6053267;28;20272;-67
2023/07/17 05:36:45;;;;;;;5.28;2.58;;;;;;;20.26;64.11;100962.13;6053806;28;20062;-67
2023/07/17 05:39:40;;;;;;;8.63;2.80;;;;;;;20.13;63.53;100957.50;6050260;28;20389;-67
2023/07/17 05:42:36;;;;;;;8.23;2.83;;;;;;;20.58;61.92;100961.34;6052250;28;20330;-67
2023/07/17 05:45:31;;;;;;;6.20;2.67;;;;;;;20.30;62.60;100957.16;6052405;28;20362;-67
2023/07/17 05:48:26;;;;;;;5.55;2.63;;;;;;;21.00;61.83;100957.44;6052246;28;20732;-67
2023/07/17 05:51:22;;;;;;;4.03;2.27;;;;;;;21.79;57.58;100939.25;6057767;28;20065;-68
2023/07/17 05:54:17;;;;;;;4.07;2.45;;;;;;;21.31;57.48;100933.38;6051890;28;20024;-67
2023/07/17 05:57:12;;;;;;;5.70;3.30;;;;;;;21.31;58.71;100949.56;6067865;28;20032;-67
2023/07/17 06:00:14;;;;;;;6.03;2.70;;;;;;;22.29;56.84;100945.69;6066086;28;20028;-67
2023/07/17 06:03:09;;;;;;;5.95;2.80;;;;;;;22.79;53.84;100956.63;6054539;28;20049;-67
2023/07/17 06:06:04;;;;;;;6.37;2.97;;;;;;;22.52;53.71;100940.56;6062185;28;20040;-67
2023/07/17 06:09:01;;;;;;;6.43;2.70;;;;;;;21.87;55.79;100957.97;6052037;28;20034;-67
2023/07/17 06:11:56;;;;;;;4.97;2.80;;;;;;;21.28;58.83;100971.56;6051214;28;20092;-67
2023/07/17 06:14:52;;;;;;;6.40;2.95;;;;;;;20.92;58.93;100973.84;6054156;28;20030;-67
2023/07/17 06:17:47;;;;;;;6.20;2.60;;;;;;;20.46;60.85;100954.91;6065665;28;20056;-66
2023/07/17 06:20:42;;;;;;;5.87;2.53;;;;;;;20.50;61.93;100979.56;6052599;28;20021;-67
2023/07/17 06:23:38;;;;;;;5.17;2.40;;;;;;;20.83;59.74;100956.19;6060171;28;20747;-67
2023/07/17 06:26:34;;;;;;;5.30;2.17;;;;;;;21.39;59.97;100948.50;6053409;28;20474;-67
2023/07/17 06:29:29;;;;;;;6.25;2.58;;;;;;;22.83;55.16;100960.56;6051667;28;20030;-67
2023/07/17 06:32:24;;;;;;;6.57;2.47;;;;;;;23.17;54.09;100975.44;6051248;28;20438;-67
2023/07/17 06:35:20;;;;;;;4.83;2.50;;;;;;;23.11;52.17;100974.47;6057112;28;20476;-68
2023/07/17 06:38:15;;;;;;;5.57;2.10;;;;;;;22.61;52.54;100979.00;6051740;28;20045;-67
2023/07/17 06:41:10;;;;;;;4.53;2.10;;;;;;;22.37;53.36;100991.38;6054657;28;20037;-67
2023/07/17 06:44:06;;;;;;;5.50;2.40;;;;;;;22.27;53.48;100992.88;6050635;28;20159;-67
2023/07/17 06:47:01;;;;;;;8.20;2.40;;;;;;;22.16;53.48;100994.41;6066327;28;20350;-67
2023/07/17 06:49:57;;;;;;;5.23;2.33;;;;;;;22.28;53.76;101003.50;6069242;28;20276;-67
2023/07/17 06:52:53;;;;;;;6.15;2.45;;;;;;;22.02;54.80;100998.19;6052116;28;20018;-68
2023/07/17 06:55:59;;;;;;;7.43;2.10;;;;;;;21.98;54.53;100996.16;6049965;28;20033;-67
2023/07/17 06:58:54;;;;;;;;;;;;;;;21.69;54.36;101008.22;6050884;28;20281;-67
2023/07/17 07:01:49;;;;;;;4.50;2.23;;;;;;;21.22;55.58;101004.78;6050298;28;19950;-67
2023/07/17 07:04:45;;;;;;;5.27;2.10;;;;;;;20.62;57.77;101011.13;6057306;28;20096;-67
2023/07/17 07:07:40;;;;;;;5.40;2.20;;;;;;;20.35;58.86;101009.41;6058925;28;20029;-68
2023/07/17 07:10:35;;;;;;;5.00;1.95;;;;;;;20.65;57.97;101004.50;6073820;28;20052;-67
2023/07/17 07:13:31;;;;;;;4.33;1.93;;;;;;;20.73;56.48;101001.59;6066728;28;20037;-66
2023/07/17 07:16:26;;;;;;;4.03;1.83;;;;;;;21.23;55.38;101022.63;6050682;28;20113;-67
2023/07/17 07:19:21;;;;;;;6.03;1.90;;;;;;;21.51;55.78;101006.19;6050267;28;20033;-67
2023/07/17 07:22:17;;;;;;;4.27;1.80;;;;;;;22.39;53.10;101000.09;6050143;28;20032;-67
2023/07/17 07:25:12;;;;;;;5.27;1.80;;;;;;;22.45;52.33;101010.03;6049218;28;20033;-67
2023/07/17 07:28:08;;;;;;;4.80;1.97;;;;;;;22.13;53.42;101016.44;6049941;28;20037;-68
2023/07/17 07:31:03;;;;;;;4.95;2.15;;;;;;;22.65;52.35;101009.97;6049660;28;20030;-67
2023/07/17 07:33:58;;;;;;;4.83;1.97;;;;;;;22.48;51.32;101009.63;6055292;28;20065;-67
2023/07/17 07:36:54;;;;;;;4.93;2.47;;;;;;;22.38;52.37;101014.66;6049566;28;20618;-67
2023/07/17 07:39:49;;;;;;;7.17;2.20;;;;;;;21.80;53.25;101018.38;6050060;28;20549;-67
2023/07/17 07:42:44;;;;;;;4.67;1.80;;;;;;;21.78;53.68;101033.97;6064028;28;20037;-67
2023/07/17 07:45:40;;;;;;;6.80;1.67;;;;;;;21.49;54.23;101023.66;6054745;28;20033;-67
2023/07/17 07:48:35;;;;;;;5.17;1.70;;;;;;;21.58;53.36;101022.41;6055660;28;20288;-67
2023/07/17 07:51:30;;;;;;;6.50;2.10;;;;;;;21.73;53.96;101022.97;6049648;28;20744;-67
2023/07/17 07:54:25;;;;;;;4.57;1.67;;;;;;;21.72;54.15;101032.09;6069454;28;20095;-67
2023/07/17 07:57:21;;;;;;;4.47;1.60;;;;;;;21.40;54.80;101035.69;6062775;28;20044;-67
2023/07/17 08:00:17;;;;;;;3.08;1.60;;;;;;;21.54;53.62;101042.72;6070002;28;20370;-67
2023/07/17 08:03:12;;;;;;;3.22;1.55;;;;;;;21.50;53.99;101025.31;6049514;28;20449;-67
2023/07/17 08:06:07;;;;;;;7.13;1.73;;;;;;;21.45;53.14;101031.31;6048953;28;20025;-67
2023/07/17 08:09:03;;;;;;;4.65;1.40;;;;;;;21.80;52.47;101050.78;6049281;28;20022;-67
2023/07/17 08:11:58;;;;;;;3.07;1.30;;;;;;;21.61;53.08;101027.34;6049514;28;20496;-67
2023/07/17 08:14:53;;;;;;;5.93;2.03;;;;;;;21.86;52.78;101025.63;6057614;28;20112;-67
2023/07/17 08:17:49;;;;;;;4.53;2.00;;;;;;;22.02;53.05;101030.59;6050796;28;20037;-67
2023/07/17 08:20:44;;;;;;;3.83;1.40;;;;;;;22.07;52.62;101038.91;6049729;28;20761;-67
2023/07/17 08:23:39;;;;;;;5.83;1.50;;;;;;;21.79;50.64;101030.25;6050620;28;20042;-67
2023/07/17 08:26:35;;;;;;;4.60;1.67;;;;;;;21.80;52.15;101027.31;6050655;28;20080;-67
2023/07/17 08:29:30;;;;;;;5.18;1.50;;;;;;;22.16;50.53;101016.00;6049079;28;20034;-67
2023/07/17 08:32:25;;;;;;;4.10;1.70;;;;;;;22.09;49.82;101014.38;6057343;28;20042;-67
2023/07/17 08:35:21;;;;;;;4.13;1.33;;;;;;;22.17;49.10;101001.47;6053212;28;20081;-67
2023/07/17 08:38:16;;;;;;;3.10;1.30;;;;;;;22.00;48.89;101012.97;6048965;28;20032;-67
2023/07/17 08:41:13;;;;;;;5.60;1.43;;;;;;;22.30;49.11;101016.78;6049040;28;20065;-67
2023/07/17 08:44:09;;;;;;;4.75;1.63;;;;;;;22.18;48.37;101010.38;6053444;28;20030;-67
2023/07/17 08:47:07;;;;;;;3.80;1.30;;;;;;;22.32;47.80;101015.53;6064094;28;20037;-68
2023/07/17 08:50:04;;;;;;;4.28;1.50;;;;;;;22.44;48.79;101003.00;6070284;28;20037;-67
2023/07/17 08:52:59;;;;;;;5.15;1.33;;;;;;;22.61;48.46;101021.41;6072696;28;20090;-67
2023/07/17 08:55:56;;;;;;;4.97;1.38;;;;;;;22.63;48.76;101019.31;6072191;28;20033;-67
2023/07/17 08:58:54;;;;;;;3.50;1.50;;;;;;;22.97;48.86;101024.31;6074909;28;20108;-68
2023/07/17 09:01:49;;;;;;;4.28;1.35;;;;;;;23.53;48.08;101016.19;6073705;28;20032;-67
2023/07/17 09:04:45;;;;;;;4.97;1.40;;;;;;;23.39;47.64;101010.06;6076031;28;20048;-67
2023/07/17 09:07:40;;;;;;;5.37;1.33;;;;;;;23.53;46.98;101008.06;6076459;28;20475;-67
2023/07/17 09:10:36;;;;;;;3.20;1.27;;;;;;;23.35;45.86;101010.66;6053158;28;20061;-68
2023/07/17 09:13:44;;;;;;;3.25;1.30;;;;;;;23.38;45.58;101013.81;6051921;28;20473;-67
2023/07/17 09:16:40;;;;;;;4.07;1.38;;;;;;;23.63;46.21;101013.78;6069136;28;20064;-67
2023/07/17 09:19:35;;;;;;;3.33;1.20;;;;;;;24.15;45.05;101020.50;6076640;28;20033;-67
2023/07/17 09:22:31;;;;;;;3.22;1.20;;;;;;;24.03;42.20;101009.56;6076597;28;20391;-67
2023/07/17 09:25:27;;;;;;;4.03;1.60;;;;;;;23.67;43.32;101020.41;6075637;28;20079;-68
2023/07/17 09:28:22;;;;;;;3.05;1.30;;;;;;;23.72;43.28;101022.44;6076520;28;20021;-67
2023/07/17 09:31:25;;;;;;;4.57;1.53;;;;;;;23.47;42.97;101015.19;6075085;28;20061;-67
2023/07/17 09:34:21;;;;;;;4.80;1.52;;;;;;;23.44;42.98;101004.81;6071453;28;20057;-68
2023/07/17 09:37:16;;;;;;;3.97;1.20;;;;;;;23.54;42.42;101026.75;6075369;28;20075;-67
2023/07/17 09:40:13;;;;;;;2.40;1.30;;;;;;;23.55;42.00;101003.22;6063076;28;20107;-67
2023/07/17 09:43:08;;;;;;;3.65;1.40;;;;;;;23.44;41.75;101009.38;6052916;28;20271;-68
2023/07/17 09:46:04;;;;;;;4.23;1.40;;;;;;;23.50;43.34;101009.31;6061723;28;20058;-68
2023/07/17 09:48:59;;;;;;;3.13;1.70;;;;;;;23.97;42.60;101032.13;6050740;28;20033;-67
2023/07/17 09:51:56;;;;;;;4.40;1.73;;;;;;;24.41;40.70;101017.44;6051451;28;20280;-68
2023/07/17 09:54:51;;;;;;;5.45;1.45;;;;;;;24.42;40.49;101021.00;6049871;28;20347;-68
2023/07/17 09:57:47;;;;;;;4.03;1.67;;;;;;;24.52;40.06;101041.09;6075605;28;20037;-68
2023/07/17 10:00:43;;;;;;;4.20;1.50;;;;;;;24.39;39.23;101037.72;6055507;28;20032;-67
2023/07/17 10:03:38;;;;;;;6.20;1.70;;;;;;;24.36;39.20;101030.88;6050856;28;20461;-67
2023/07/17 10:06:35;;;;;;;6.35;1.80;;;;;;;24.66;39.83;101048.00;6050493;28;20044;-67
2023/07/17 10:09:34;;;;;;;3.40;1.63;;;;;;;24.55;40.92;101034.38;6050792;28;20065;-68
2023/07/17 10:12:30;;;;;;;3.17;1.30;;;;;;;24.64;40.86;101031.13;6051636;28;20026;-67
2023/07/17 10:15:26;;;;;;;4.60;1.40;;;;;;;25.14;40.65;101036.25;6049349;28;20025;-68
2023/07/17 10:18:22;;;;;;;4.43;1.60;;;;;;;25.42;37.94;101030.94;6066772;28;20048;-68
2023/07/17 10:21:18;;;;;;;3.08;1.60;;;;;;;25.31;36.86;101050.78;6053920;28;20033;-68
2023/07/17 10:24:14;;;;;;;3.78;1.63;;;;;;;25.03;37.38;101034.34;6058544;28;20109;-68
2023/07/17 10:27:09;;;;;;;2.57;1.40;;;;;;;24.99;38.02;101041.28;6057143;28;20059;-67
2023/07/17 10:30:21;;;;;;;5.37;1.60;;;;;;;24.62;38.01;101054.91;6051167;28;20025;-68
2023/07/17 10:33:19;;;;;;;3.55;1.30;;;;;;;24.66;39.35;101037.13;6050450;28;20034;-68
2023/07/17 10:36:14;;;;;;;4.45;1.60;;;;;;;24.87;38.23;101048.56;6071887;28;20025;-68
2023/07/17 10:39:17;;;;;;;3.30;1.70;;;;;;;25.69;36.42;101053.91;6074858;28;20376;-67
2023/07/17 10:42:12;;;;;;;3.38;1.58;;;;;;;25.60;38.07;101033.56;6064559;28;20269;-67
2023/07/17 10:45:11;;;;;;;3.20;1.50;;;;;;;25.82;37.36;101037.34;6049827;28;20076;-67
2023/07/17 10:48:06;;;;;;;3.40;1.70;;;;;;;25.17;37.20;101038.47;6050708;28;20339;-67
2023/07/17 10:51:02;;;;;;;4.20;1.53;;;;;;;24.92;37.62;101038.69;6049992;28;20367;-68
2023/07/17 10:53:57;;;;;;;4.03;1.63;;;;;;;25.51;37.99;101034.19;6070293;28;20041;-68
2023/07/17 10:56:53;;;;;;;3.53;1.40;;;;;;;25.31;37.12;101039.91;6058040;28;20276;-67
2023/07/17 10:59:48;;;;;;;2.15;1.30;;;;;;;25.34;36.61;101029.41;6074063;28;20488;-68
2023/07/17 11:02:43;;;;;;;4.13;1.83;;;;;;;24.45;38.63;101040.34;6054233;28;20092;-67
2023/07/17 11:05:40;;;;;;;3.80;1.60;;;;;;;24.12;39.02;101042.66;6049564;28;20038;-68
2023/07/17 11:08:35;;;;;;;3.85;1.80;;;;;;;23.75;40.12;101038.25;6050261;28;20164;-68
2023/07/17 11:11:31;;;;;;;4.00;2.00;;;;;;;24.16;39.28;101036.53;6067782;28;20073;-68
2023/07/17 11:14:27;;;;;;;2.72;1.38;;;;;;;24.21;40.37;101036.72;6066199;28;20287;-68
2023/07/17 11:17:22;;;;;;;3.17;1.60;;;;;;;24.60;39.41;101048.06;6065079;28;20041;-68
2023/07/17 11:20:17;;;;;;;3.40;1.40;;;;;;;24.93;37.06;101031.34;6072928;28;20038;-68
2023/07/17 11:23:13;;;;;;;5.90;1.50;;;;;;;24.68;37.86;101047.75;6074035;28;20448;-68
2023/07/17 11:26:08;;;;;;;4.33;1.60;;;;;;;24.30;39.53;101042.63;6073302;28;20025;-68
2023/07/17 11:29:03;;;;;;;4.47;1.60;;;;;;;23.96;40.36;101049.47;6072228;28;20028;-68
2023/07/17 11:31:59;;;;;;;4.37;1.70;;;;;;;24.07;40.46;101047.88;6061169;28;20121;-68
2023/07/17 11:34:59;;;;;;;6.65;1.77;;;;;;;24.48;40.15;101050.75;6048953;28;20300;-67
2023/07/17 11:37:54;;;;;;;3.20;1.50;;;;;;;24.73;38.53;101048.72;6050033;28;20057;-68
2023/07/17 11:40:57;;;;;;;6.47;1.93;;;;;;;24.49;39.83;101052.38;6048358;28;20030;-68
2023/07/17 11:43:57;;;;;;;5.68;2.00;;;;;;;25.07;38.83;101046.38;6050252;28;20546;-68
2023/07/17 11:46:57;;;;;;;4.15;1.90;;;;;;;25.47;36.98;101041.97;6064037;28;20091;-68
2023/07/17 11:49:53;;;;;;;5.65;2.03;;;;;;;26.04;38.26;101041.09;6073407;28;20028;-68
2023/07/17 11:52:49;;;;;;;5.40;1.92;;;;;;;25.49;36.04;101031.72;6073417;28;20029;-68
2023/07/17 11:55:44;;;;;;;5.03;1.57;;;;;;;24.50;38.03;101055.94;6072502;28;20042;-68
2023/07/17 11:58:50;;;;;;;5.47;2.25;;;;;;;23.80;39.08;101028.41;6073494;28;20045;-68
2023/07/17 12:01:46;;;;;;;4.78;1.83;;;;;;;24.62;38.32;101046.78;6059382;28;20092;-68
2023/07/17 12:04:42;;;;;;;4.40;1.65;;;;;;;24.89;39.06;101022.84;6049080;28;20065;-68
2023/07/17 12:07:37;;;;;;;4.73;1.63;;;;;;;24.96;38.18;101030.88;6049453;28;20026;-68
2023/07/17 12:10:33;;;;;;;4.10;1.60;;;;;;;25.52;36.80;101031.22;6049026;28;20037;-68
2023/07/17 12:13:28;;;;;;;6.95;2.30;;;;;;;25.74;37.40;101012.41;6048706;28;20092;-68
2023/07/17 12:16:23;;;;;;;7.50;2.30;;;;;;;26.47;36.29;101031.69;6060138;28;20029;-68
2023/07/17 12:19:19;;;;;;;5.27;2.30;;;;;;;26.16;36.79;101021.25;6073274;28;20353;-68
2023/07/17 12:22:14;;;;;;;5.38;2.20;;;;;;;25.47;37.25;101047.41;6073373;28;20029;-68
2023/07/17 12:25:10;;;;;;;5.07;2.50;;;;;;;24.97;37.98;101027.13;6071276;28;20038;-68
2023/07/17 12:28:05;;;;;;;4.03;1.97;;;;;;;24.81;38.79;101034.03;6064174;28;20026;-68
2023/07/17 12:31:00;;;;;;;5.40;1.90;;;;;;;25.10;37.47;101041.31;6049582;28;20038;-68
2023/07/17 12:33:55;;;;;;;4.80;1.97;;;;;;;25.32;36.51;101036.16;6052887;28;20384;-68
2023/07/17 12:36:51;;;;;;;5.63;2.40;;;;;;;24.88;38.79;101028.50;6054107;28;20045;-68
2023/07/17 12:39:46;;;;;;;4.83;2.20;;;;;;;24.34;40.74;101022.16;6053551;28;20054;-68
2023/07/17 12:42:41;;;;;;;4.90;2.00;;;;;;;24.57;39.55;101016.81;6053215;28;20030;-68
2023/07/17 12:45:38;;;;;;;6.33;2.40;;;;;;;25.03;38.94;101029.72;6061764;28;20485;-68
2023/07/17 12:48:33;;;;;;;5.22;2.58;;;;;;;25.01;39.38;101031.00;6061371;28;20292;-68
2023/07/17 12:51:28;;;;;;;7.23;2.73;;;;;;;25.19;38.30;101045.34;6059771;28;20025;-68
2023/07/17 12:54:24;;;;;;;9.43;2.63;;;;;;;24.46;38.65;101031.16;6059180;28;20030;-68
2023/07/17 12:57:19;;;;;;;6.27;2.10;;;;;;;24.52;37.06;101019.38;6053527;28;20041;-68
2023/07/17 13:00:15;;;;;;;6.82;2.20;;;;;;;24.73;36.26;101029.72;6063700;28;20053;-68
2023/07/17 13:03:10;;;;;;;5.43;2.50;;;;;;;25.17;37.28;101033.03;6057993;28;20517;-68
2023/07/17 13:06:05;;;;;;;6.43;2.70;;;;;;;25.55;37.07;101019.88;6055439;28;20420;-67
2023/07/17 13:09:01;;;;;;;4.90;2.05;;;;;;;25.15;37.99;101008.84;6053147;28;20473;-68
2023/07/17 13:11:56;;;;;;;4.17;2.20;;;;;;;25.38;37.25;101019.72;6058872;28;20061;-68
2023/07/17 13:14:52;;;;;;;5.28;2.08;;;;;;;25.33;37.82;101016.06;6057365;28;20033;-68
2023/07/17 13:17:47;;;;;;;7.32;2.80;;;;;;;25.16;37.67;101025.97;6063566;28;20449;-67
2023/07/17 13:20:42;;;;;;;4.83;2.30;;;;;;;25.38;36.60;101024.34;6067473;28;20083;-67
2023/07/17 13:23:38;;;;;;;5.05;2.40;;;;;;;25.69;35.86;101015.84;6052168;28;20053;-68
2023/07/17 13:26:33;;;;;;;6.17;2.70;;;;;;;25.20;36.23;101038.00;6053249;28;20065;-68
2023/07/17 13:29:29;;;;;;;6.88;2.80;;;;;;;24.83;37.84;101032.75;6051203;28;20378;-68
2023/07/17 13:32:24;;;;;;;7.20;2.67;;;;;;;25.10;38.16;101029.63;6053761;28;20025;-69
2023/07/17 13:35:19;;;;;;;5.63;2.22;;;;;;;25.31;36.81;101037.19;6051485;28;20264;-68
2023/07/17 13:38:15;;;;;;;5.30;2.57;;;;;;;24.70;37.38;101040.22;6064231;28;20528;-68